Time;durP1;ratioP1;P1;durP2;ratioP2;P2;SDS_P1;SDS_P2;PMS_P1;PMS_P2;Temp;Humidity;BMP_temperature;BMP_pressure;BME280_temperature;BME280_humidity;BME280_pressure;Samples;Min_cycle;Max_cycle;Signal;HPM_P1;HPM_P2
2023/09/22 00:06:05;;;;;;;7.60;3.35;;;;;;;22.55;100.00;101160.41;20890598;28;20142;-71
2023/09/22 00:16:29;;;;;;;8.82;3.17;;;;;;;22.63;100.00;101153.03;20890454;28;20057;-71
2023/09/22 00:26:51;;;;;;;8.93;3.28;;;;;;;22.66;100.00;101140.34;20916880;28;20060;-71
2023/09/22 00:37:16;;;;;;;6.85;3.55;;;;;;;22.73;100.00;101142.88;20891563;28;20041;-71
2023/09/22 00:47:39;;;;;;;9.57;3.17;;;;;;;22.66;100.00;101140.34;20893164;28;20502;-71
2023/09/22 00:58:03;;;;;;;7.53;3.00;;;;;;;22.62;100.00;101145.88;20872735;28;20052;-72
2023/09/22 01:08:26;;;;;;;11.35;3.42;;;;;;;22.54;100.00;101143.38;20901765;28;20392;-71
2023/09/22 01:18:50;;;;;;;8.35;2.88;;;;;;;22.62;100.00;101140.47;20884776;28;20057;-71
2023/09/22 01:29:14;;;;;;;6.63;2.85;;;;;;;22.65;100.00;101146.66;20871853;28;20049;-71
2023/09/22 01:39:38;;;;;;;9.40;3.05;;;;;;;22.72;100.00;101136.59;20892578;28;20562;-71
2023/09/22 01:50:04;;;;;;;7.47;2.92;;;;;;;22.70;99.09;101143.84;20898427;28;20064;-71
2023/09/22 02:00:27;;;;;;;8.80;2.97;;;;;;;22.51;99.11;101139.91;20893722;28;20051;-71
2023/09/22 02:10:51;;;;;;;7.93;2.65;;;;;;;22.49;96.90;101149.81;20904316;28;20139;-71
2023/09/22 02:21:14;;;;;;;6.70;2.70;;;;;;;22.39;95.85;101149.16;20893775;28;20098;-71
2023/09/22 02:31:39;;;;;;;7.05;2.67;;;;;;;22.28;94.83;101132.44;20874830;28;20053;-71
2023/09/22 02:42:01;;;;;;;10.18;3.35;;;;;;;22.24;93.93;101125.38;20870598;28;20532;-71
2023/09/22 02:52:26;;;;;;;7.20;2.60;;;;;;;22.21;93.28;101130.84;20898468;28;20496;-71
2023/09/22 03:02:48;;;;;;;6.32;2.72;;;;;;;22.11;93.84;101146.34;20883103;28;20041;-71
2023/09/22 03:13:13;;;;;;;9.13;2.83;;;;;;;22.06;94.68;101136.59;20879572;28;20396;-71
2023/09/22 03:23:36;;;;;;;11.98;3.00;;;;;;;22.08;94.05;101145.53;20875576;28;20136;-72
2023/09/22 03:34:02;;;;;;;9.93;3.20;;;;;;;21.79;95.88;101138.16;20892142;28;20136;-71
2023/09/22 03:44:26;;;;;;;7.68;2.58;;;;;;;21.64;97.02;101144.78;20868026;28;20485;-71
2023/09/22 03:54:50;;;;;;;12.52;3.35;;;;;;;21.55;97.74;101163.81;20872546;28;20130;-70
2023/09/22 04:05:13;;;;;;;9.88;2.97;;;;;;;21.58;98.35;101152.13;20862313;28;20041;-70
2023/09/22 04:15:38;;;;;;;9.63;2.53;;;;;;;21.58;98.47;101157.50;20867645;28;20404;-71
2023/09/22 04:26:09;;;;;;;10.27;3.00;;;;;;;21.76;97.87;101152.56;20876275;28;20096;-71
2023/09/22 04:36:34;;;;;;;9.73;2.65;;;;;;;21.99;99.43;101149.31;20871140;28;20059;-71
2023/09/22 04:46:57;;;;;;;12.65;2.95;;;;;;;22.48;100.00;101166.88;20888527;28;20095;-71
2023/09/22 04:57:21;;;;;;;10.43;3.22;;;;;;;23.05;100.00;101177.84;20901274;28;20076;-72
2023/09/22 05:07:44;;;;;;;9.07;2.58;;;;;;;23.61;100.00;101178.00;20892005;28;20037;-71
2023/09/22 05:18:12;;;;;;;14.65;3.05;;;;;;;24.17;100.00;101179.72;20883217;28;20060;-72
2023/09/22 05:28:38;;;;;;;16.10;3.20;;;;;;;25.03;98.66;101185.72;20894555;28;20623;-71
2023/09/22 05:39:08;;;;;;;10.52;2.60;;;;;;;25.73;88.31;101200.09;20893165;28;20405;-71
2023/09/22 05:49:31;;;;;;;7.20;2.20;;;;;;;26.33;75.09;101208.50;20876039;28;20447;-71
2023/09/22 05:59:55;;;;;;;12.35;2.13;;;;;;;27.22;72.33;101228.94;20884531;28;20057;-71
2023/09/22 06:10:18;;;;;;;6.32;2.55;;;;;;;28.16;59.80;101223.53;20885736;28;20052;-71
2023/09/22 06:20:44;;;;;;;11.57;2.47;;;;;;;29.04;55.78;101235.31;20856765;28;20610;-71
2023/09/22 06:31:06;;;;;;;10.95;2.05;;;;;;;29.58;49.94;101238.72;20896954;28;20051;-71
2023/09/22 06:41:30;;;;;;;10.90;2.20;;;;;;;30.00;47.26;101249.91;20869745;28;20665;-71
2023/09/22 06:51:53;;;;;;;5.50;1.80;;;;;;;30.50;44.40;101248.84;20869151;28;20566;-71
2023/09/22 07:02:17;;;;;;;11.82;2.22;;;;;;;31.16;40.65;101256.66;20859803;28;20485;-71
2023/09/22 07:12:40;;;;;;;6.55;2.00;;;;;;;31.56;39.11;101255.91;20846470;28;20140;-72
2023/09/22 07:23:04;;;;;;;12.02;2.17;;;;;;;32.15;38.17;101270.31;20786986;28;20126;-71
2023/09/22 07:33:30;;;;;;;9.52;2.13;;;;;;;32.59;36.78;101272.78;20787318;28;20416;-72
2023/09/22 07:43:55;;;;;;;5.72;2.17;;;;;;;32.86;35.62;101272.78;20797561;28;20061;-71
2023/09/22 07:54:18;;;;;;;8.40;1.73;;;;;;;33.15;35.29;101281.66;20783875;28;20063;-72
2023/09/22 08:04:42;;;;;;;7.75;1.73;;;;;;;33.45;34.12;101271.31;20801938;28;20076;-72
2023/09/22 08:15:06;;;;;;;10.55;1.80;;;;;;;33.85;33.71;101280.28;20855980;28;20059;-72
2023/09/22 08:25:30;;;;;;;;;;;;;;;34.13;33.61;101270.91;20880529;28;20048;-72
2023/09/22 08:35:53;;;;;;;6.10;1.73;;;;;;;34.33;32.62;101270.28;20905994;28;19927;-72
2023/09/22 08:46:18;;;;;;;9.98;2.00;;;;;;;34.63;31.08;101264.34;20892949;28;20045;-72
2023/09/22 08:56:41;;;;;;;8.05;2.15;;;;;;;34.87;30.27;101275.28;20904971;28;20049;-72
2023/09/22 09:07:05;;;;;;;11.02;2.25;;;;;;;35.28;29.80;101263.81;20878753;28;20092;-72
2023/09/22 09:17:28;;;;;;;7.97;2.40;;;;;;;35.46;29.31;101258.72;20839825;28;20052;-72
2023/09/22 09:28:02;;;;;;;9.45;2.28;;;;;;;35.65;28.47;101267.22;20888106;28;20110;-72
2023/09/22 09:38:27;;;;;;;9.30;2.00;;;;;;;35.70;28.18;101255.91;20887786;28;20053;-72
2023/09/22 09:48:55;;;;;;;6.57;1.88;;;;;;;35.70;27.45;101250.41;20901850;28;20049;-72
2023/09/22 09:59:18;;;;;;;8.57;2.80;;;;;;;35.91;27.42;101243.09;20887804;28;20390;-72
2023/09/22 10:09:43;;;;;;;8.53;2.40;;;;;;;35.93;27.28;101235.63;20885779;28;20399;-72
2023/09/22 10:20:10;;;;;;;9.65;2.20;;;;;;;36.10;27.00;101237.84;20886005;28;20473;-72
2023/09/22 10:31:04;;;;;;;8.82;2.35;;;;;;;36.23;26.35;101215.72;20884863;28;20060;-71
2023/09/22 10:41:27;;;;;;;7.60;2.17;;;;;;;35.86;26.46;101209.63;20883025;28;20044;-72
2023/09/22 10:51:52;;;;;;;9.90;2.15;;;;;;;35.60;26.52;101199.88;20889187;28;20032;-71
2023/09/22 11:02:22;;;;;;;8.70;2.57;;;;;;;35.32;26.63;101204.88;20877413;28;20478;-72
2023/09/22 11:12:50;;;;;;;12.57;2.58;;;;;;;34.92;27.08;101185.22;20892192;28;20144;-71
2023/09/22 11:23:13;;;;;;;11.30;2.90;;;;;;;34.66;27.20;101187.25;20869573;28;20064;-72
2023/09/22 11:33:37;;;;;;;10.68;2.50;;;;;;;34.36;27.26;101173.19;20883676;28;20049;-71
2023/09/22 11:44:00;;;;;;;7.57;2.07;;;;;;;34.24;27.32;101164.06;20909663;28;20084;-71
2023/09/22 11:54:28;;;;;;;9.05;2.47;;;;;;;34.23;27.54;101173.28;20900915;28;20381;-71
2023/09/22 12:04:52;;;;;;;10.82;2.58;;;;;;;33.98;27.59;101170.63;20885140;28;20049;-72
2023/09/22 12:15:17;;;;;;;7.15;2.30;;;;;;;33.53;27.86;101170.31;20911247;28;20067;-72
2023/09/22 12:25:39;;;;;;;7.97;2.20;;;;;;;33.22;27.89;101157.97;20851815;28;20401;-72
2023/09/22 12:36:05;;;;;;;10.23;2.42;;;;;;;33.03;27.82;101162.13;20866460;28;20476;-71
2023/09/22 12:46:27;;;;;;;9.43;2.15;;;;;;;32.97;28.23;101151.63;20833406;28;20049;-71
2023/09/22 12:56:51;;;;;;;8.90;2.53;;;;;;;32.86;28.77;101157.88;20833541;28;20056;-71
2023/09/22 13:07:15;;;;;;;10.30;2.47;;;;;;;32.76;28.43;101154.00;20825224;28;20049;-71
2023/09/22 13:17:39;;;;;;;7.57;1.95;;;;;;;32.63;28.81;101153.09;20880915;28;20064;-71
2023/09/22 13:28:04;;;;;;;6.72;2.00;;;;;;;32.51;28.79;101151.22;20872787;28;20127;-72
2023/09/22 13:38:29;;;;;;;7.22;2.38;;;;;;;32.29;29.22;101150.00;20900151;28;20048;-71
2023/09/22 13:48:51;;;;;;;9.52;2.30;;;;;;;32.20;30.09;101156.09;20875654;28;20057;-71
2023/09/22 13:59:15;;;;;;;7.30;2.42;;;;;;;32.01;30.24;101156.44;20884488;28;20048;-71
2023/09/22 14:09:39;;;;;;;8.25;2.28;;;;;;;31.85;31.04;101160.28;20873508;28;20055;-72
2023/09/22 14:20:04;;;;;;;8.50;2.20;;;;;;;31.73;32.15;101167.44;20852571;28;20044;-71
2023/09/22 14:30:27;;;;;;;8.30;3.03;;;;;;;31.44;33.74;101160.28;20828367;28;20072;-71
2023/09/22 14:40:51;;;;;;;12.43;2.22;;;;;;;30.98;35.12;101170.47;20859515;28;20102;-71
2023/09/22 14:51:14;;;;;;;9.15;2.63;;;;;;;30.75;35.09;101163.72;20864449;28;20488;-71
2023/09/22 15:01:38;;;;;;;5.50;2.20;;;;;;;30.54;34.77;101156.84;20866633;28;20053;-71
2023/09/22 15:12:01;;;;;;;7.30;2.40;;;;;;;30.29;34.50;101155.59;20854384;28;20060;-71
2023/09/22 15:22:29;;;;;;;9.73;2.45;;;;;;;30.06;34.03;101139.75;20889286;28;20041;-71
2023/09/22 15:32:51;;;;;;;9.05;3.13;;;;;;;29.84;34.69;101140.09;20884691;28;20045;-72
2023/09/22 15:43:15;;;;;;;12.30;3.50;;;;;;;29.61;34.64;101155.03;20863329;28;20045;-71
2023/09/22 15:53:38;;;;;;;8.57;2.80;;;;;;;29.39;35.57;101153.63;20859243;28;20041;-72
2023/09/22 16:04:03;;;;;;;12.73;2.60;;;;;;;29.09;36.62;101145.28;20863761;28;20501;-71
2023/09/22 16:14:26;;;;;;;11.70;2.95;;;;;;;28.81;37.20;101152.25;20836462;28;20532;-72
2023/09/22 16:24:50;;;;;;;15.73;3.17;;;;;;;28.49;38.33;101162.06;20814060;28;20136;-72
2023/09/22 16:35:12;;;;;;;10.52;2.85;;;;;;;28.14;38.49;101163.91;20804425;28;20165;-71
2023/09/22 16:45:36;;;;;;;11.35;3.00;;;;;;;27.78;39.29;101160.28;20802310;28;20133;-71
2023/09/22 16:56:09;;;;;;;9.25;3.10;;;;;;;27.54;39.94;101164.19;20839647;28;20091;-71
2023/09/22 17:06:33;;;;;;;13.40;3.40;;;;;;;27.34;40.16;101166.00;20857919;28;20043;-71
2023/09/22 17:16:56;;;;;;;12.57;2.85;;;;;;;27.07;40.86;101166.41;20818258;28;20049;-71
2023/09/22 17:27:22;;;;;;;8.90;3.35;;;;;;;26.84;41.26;101172.84;20808569;28;20052;-71
2023/09/22 17:37:44;;;;;;;11.60;3.60;;;;;;;26.55;41.59;101184.97;20795057;28;20037;-71
2023/09/22 17:48:09;;;;;;;11.10;4.60;;;;;;;26.47;41.48;101184.44;20823174;28;20821;-71
2023/09/22 17:58:32;;;;;;;17.30;4.63;;;;;;;26.28;42.35;101175.34;20808240;28;20054;-71
2023/09/22 18:08:57;;;;;;;11.70;3.25;;;;;;;26.33;41.55;101165.19;20791854;28;20052;-71
2023/09/22 18:19:19;;;;;;;15.25;5.03;;;;;;;26.11;41.80;101178.72;20885714;28;20057;-72
2023/09/22 18:29:46;;;;;;;34.60;19.13;;;;;;;26.07;41.71;101175.25;20851494;28;20056;-71
2023/09/22 18:40:10;;;;;;;14.98;5.43;;;;;;;25.97;42.15;101176.59;20845232;28;20136;-72
2023/09/22 18:50:35;;;;;;;11.60;4.32;;;;;;;25.88;41.90;101174.25;20882782;28;20520;-71
2023/09/22 19:00:57;;;;;;;16.70;7.35;;;;;;;25.41;42.45;101168.03;20842675;28;20392;-71
2023/09/22 19:11:22;;;;;;;23.92;10.60;;;;;;;25.36;42.81;101179.03;20874141;28;20049;-71
2023/09/22 19:21:45;;;;;;;7.90;3.50;;;;;;;25.30;43.34;101173.84;20870980;28;20048;-72
2023/09/22 19:32:09;;;;;;;23.92;12.75;;;;;;;25.11;43.93;101166.50;20877753;28;20060;-72
2023/09/22 19:42:32;;;;;;;17.40;6.32;;;;;;;25.04;44.22;101163.16;20888468;28;20419;-72
2023/09/22 19:52:56;;;;;;;9.70;4.45;;;;;;;24.92;44.36;101163.63;20892775;28;20049;-72
2023/09/22 20:03:19;;;;;;;9.52;3.40;;;;;;;24.98;45.03;101158.00;20901061;28;20079;-72
2023/09/22 20:13:43;;;;;;;9.70;4.15;;;;;;;25.02;45.06;101157.81;20895925;28;20056;-72
2023/09/22 20:24:07;;;;;;;9.25;3.80;;;;;;;25.20;45.78;101148.13;20883652;28;20139;-72
2023/09/22 20:34:32;;;;;;;14.30;4.53;;;;;;;25.21;46.26;101146.28;20885327;28;20059;-72
2023/09/22 20:44:55;;;;;;;9.15;4.15;;;;;;;25.20;47.88;101148.13;20888826;28;20057;-72
2023/09/22 20:55:19;;;;;;;12.95;4.30;;;;;;;25.23;48.30;101152.53;20889622;28;20048;-72
2023/09/22 21:05:42;;;;;;;10.45;4.40;;;;;;;25.18;49.66;101147.31;20879878;28;20128;-72
2023/09/22 21:16:07;;;;;;;9.25;4.57;;;;;;;25.17;50.51;101144.66;20864196;28;20068;-72
2023/09/22 21:26:29;;;;;;;12.85;5.13;;;;;;;24.98;51.82;101139.97;20859916;28;20055;-72
2023/09/22 21:36:53;;;;;;;11.77;4.70;;;;;;;24.89;52.91;101137.59;20887373;28;20052;-72
2023/09/22 21:47:16;;;;;;;9.35;4.63;;;;;;;24.66;54.47;101133.97;20879516;28;20052;-72
2023/09/22 21:57:41;;;;;;;14.73;5.15;;;;;;;24.53;55.92;101130.81;20850984;28;20135;-72
2023/09/22 22:08:05;;;;;;;10.93;4.57;;;;;;;24.33;59.00;101131.53;20893466;28;20052;-72
2023/09/22 22:18:29;;;;;;;9.60;4.57;;;;;;;24.34;61.43;101117.13;20864464;28;20045;-72
2023/09/22 22:28:52;;;;;;;11.90;4.80;;;;;;;24.58;61.83;101118.91;20862854;28;20166;-72
2023/09/22 22:39:19;;;;;;;14.40;5.05;;;;;;;24.67;64.64;101119.53;20887884;28;20049;-72
2023/09/22 22:49:41;;;;;;;10.80;5.22;;;;;;;24.72;64.53;101106.72;20879658;28;20110;-72
2023/09/22 23:00:13;;;;;;;13.10;5.18;;;;;;;24.61;65.84;101112.53;20883352;28;20436;-72
2023/09/22 23:10:38;;;;;;;11.02;5.10;;;;;;;24.55;67.53;101099.22;20901667;28;20040;-72
2023/09/22 23:21:04;;;;;;;10.43;4.88;;;;;;;24.60;67.47;101092.75;20912499;28;20049;-72
2023/09/22 23:31:27;;;;;;;14.73;5.13;;;;;;;24.43;69.05;101078.97;20864420;28;20477;-72
2023/09/22 23:41:54;;;;;;;9.02;5.22;;;;;;;24.54;68.86;101075.91;20875375;28;20052;-72
2023/09/22 23:52:16;;;;;;;11.88;5.40;;;;;;;24.78;67.65;101068.69;20874843;28;20072;-72
